PWSweather.com
Personal Weather Stations
Station Observations
FAUSKE
Nordland, Norway, FauskeNO 8200

Nordland, NorwayFauskeNO 8200

Lat: 67.2607586, Lon: 15.4114204

Elevation: 40

Station Type: Davis Vantage PRO2

http://www.bjornli.net/weather.html

High Low Average
Temperature 66.9°F19.4°C 53.7°F12.1°C 62.6°F17.0°C
Dew Point 54.8°F12.7°C 50.6°F10.3°C 52.8°F11.6°C
Winds 27.0 mph 43.5 kmh Calm Calm 10.0 mph SSE16.1 kmh SSE
Wind Gusts 32.0 mph51.5 kmh -- 15.0 mph24.1 kmh
Humidity 93% 59% 71%
Pressure 29.74 in1007.1 mb 29.36 in994.2 mb -
Precipitation 0.00 in0.0 mm - -
Hour Temp Dew Point Humidity Winds Wind Gusts Pressure Precip Precip Rate Daily Precip Total
12:00 AM 63.0°F17.2°C 54.6°F12.6°C 74% 9.0 mph SE14.5 kmh SE 10.0 mph16.1 kmh 29.74 in1007.1 mb 0.00 in0.0 mm 0.00 in0.0 mm 0.00 in0.0 mm
12:09 AM 63.1°F17.3°C 54.3°F12.4°C 73% 10.0 mph SE16.1 kmh SE 15.0 mph24.1 kmh 29.74 in1007.1 mb 0.00 in0.0 mm 0.00 in0.0 mm 0.00 in0.0 mm
12:30 AM 63.2°F17.3°C 54.4°F12.4°C 73% 8.0 mph SE12.9 kmh SE 8.0 mph12.9 kmh 29.74 in1007.1 mb 0.00 in0.0 mm 0.00 in0.0 mm 0.00 in0.0 mm
12:40 AM 63.2°F17.3°C 54.8°F12.7°C 74% 11.0 mph SE17.7 kmh SE 15.0 mph24.1 kmh 29.73 in1006.8 mb 0.00 in0.0 mm 0.00 in0.0 mm 0.00 in0.0 mm
01:00 AM 63.4°F17.4°C 54.6°F12.6°C 73% 7.0 mph SE11.3 kmh SE 12.0 mph19.3 kmh 29.72 in1006.4 mb 0.00 in0.0 mm 0.00 in0.0 mm 0.00 in0.0 mm
01:10 AM 63.4°F17.4°C 54.6°F12.6°C 73% 19.0 mph SE30.6 kmh SE 21.0 mph33.8 kmh 29.73 in1006.8 mb 0.00 in0.0 mm 0.00 in0.0 mm 0.00 in0.0 mm
01:30 AM 63.3°F17.4°C 54.5°F12.5°C 73% 6.0 mph SE9.7 kmh SE 21.0 mph33.8 kmh 29.72 in1006.4 mb 0.00 in0.0 mm 0.00 in0.0 mm 0.00 in0.0 mm
01:40 AM 63.4°F17.4°C 54.6°F12.6°C 73% 8.0 mph SE12.9 kmh SE 16.0 mph25.7 kmh 29.72 in1006.4 mb 0.00 in0.0 mm 0.00 in0.0 mm 0.00 in0.0 mm
02:00 AM 63.0°F17.2°C 54.6°F12.6°C 74% 9.0 mph SE14.5 kmh SE 18.0 mph29.0 kmh 29.71 in1006.1 mb 0.00 in0.0 mm 0.00 in0.0 mm 0.00 in0.0 mm
02:10 AM 63.2°F17.3°C 54.4°F12.4°C 73% 8.0 mph SE12.9 kmh SE 18.0 mph29.0 kmh 29.71 in1006.1 mb 0.00 in0.0 mm 0.00 in0.0 mm 0.00 in0.0 mm
02:30 AM 63.3°F17.4°C 54.5°F12.5°C 73% 13.0 mph SE20.9 kmh SE 15.0 mph24.1 kmh 29.71 in1006.1 mb 0.00 in0.0 mm 0.00 in0.0 mm 0.00 in0.0 mm
02:39 AM 63.4°F17.4°C 54.2°F12.3°C 72% 11.0 mph SSE17.7 kmh SSE 17.0 mph27.4 kmh 29.70 in1005.8 mb 0.00 in0.0 mm 0.00 in0.0 mm 0.00 in0.0 mm
03:00 AM 63.6°F17.6°C 54.4°F12.4°C 72% 16.0 mph SE25.7 kmh SE 19.0 mph30.6 kmh 29.68 in1005.1 mb 0.00 in0.0 mm 0.00 in0.0 mm 0.00 in0.0 mm
03:10 AM 63.6°F17.6°C 54.4°F12.4°C 72% 9.0 mph SE14.5 kmh SE 19.0 mph30.6 kmh 29.68 in1005.1 mb 0.00 in0.0 mm 0.00 in0.0 mm 0.00 in0.0 mm
03:30 AM 63.3°F17.4°C 54.1°F12.3°C 72% 11.0 mph SE17.7 kmh SE 11.0 mph17.7 kmh 29.67 in1004.7 mb 0.00 in0.0 mm 0.00 in0.0 mm 0.00 in0.0 mm
03:40 AM 63.5°F17.5°C 54.3°F12.4°C 72% 13.0 mph SE20.9 kmh SE 20.0 mph32.2 kmh 29.66 in1004.4 mb 0.00 in0.0 mm 0.00 in0.0 mm 0.00 in0.0 mm
04:00 AM 63.8°F17.7°C 54.2°F12.3°C 71% 10.0 mph SE16.1 kmh SE 12.0 mph19.3 kmh 29.66 in1004.4 mb 0.00 in0.0 mm 0.00 in0.0 mm 0.00 in0.0 mm
04:09 AM 63.5°F17.5°C 53.9°F12.2°C 71% 5.0 mph SSE8.0 kmh SSE 18.0 mph29.0 kmh 29.66 in1004.4 mb 0.00 in0.0 mm 0.00 in0.0 mm 0.00 in0.0 mm
04:30 AM 63.2°F17.3°C 53.7°F12.1°C 71% 15.0 mph SE24.1 kmh SE 15.0 mph24.1 kmh 29.65 in1004.1 mb 0.00 in0.0 mm 0.00 in0.0 mm 0.00 in0.0 mm
04:40 AM 63.0°F17.2°C 53.5°F11.9°C 71% 12.0 mph SE19.3 kmh SE 19.0 mph30.6 kmh 29.65 in1004.1 mb 0.00 in0.0 mm 0.00 in0.0 mm 0.00 in0.0 mm
05:00 AM 63.0°F17.2°C 53.1°F11.7°C 70% 13.0 mph SE20.9 kmh SE 15.0 mph24.1 kmh 29.65 in1004.1 mb 0.00 in0.0 mm 0.00 in0.0 mm 0.00 in0.0 mm
05:10 AM 63.0°F17.2°C 53.1°F11.7°C 70% 2.0 mph SE3.2 kmh SE 19.0 mph30.6 kmh 29.64 in1003.7 mb 0.00 in0.0 mm 0.00 in0.0 mm 0.00 in0.0 mm
05:30 AM 63.1°F17.3°C 52.8°F11.6°C 69% 8.0 mph ESE12.9 kmh ESE 8.0 mph12.9 kmh 29.64 in1003.7 mb 0.00 in0.0 mm 0.00 in0.0 mm 0.00 in0.0 mm
05:40 AM 62.9°F17.2°C 53.0°F11.7°C 70% 14.0 mph ESE22.5 kmh ESE 16.0 mph25.7 kmh 29.64 in1003.7 mb 0.00 in0.0 mm 0.00 in0.0 mm 0.00 in0.0 mm
06:00 AM 63.0°F17.2°C 52.7°F11.5°C 69% 10.0 mph SE16.1 kmh SE 15.0 mph24.1 kmh 29.63 in1003.4 mb 0.00 in0.0 mm 0.00 in0.0 mm 0.00 in0.0 mm
06:10 AM 63.0°F17.2°C 52.7°F11.5°C 69% 9.0 mph SE14.5 kmh SE 19.0 mph30.6 kmh 29.63 in1003.4 mb 0.00 in0.0 mm 0.00 in0.0 mm 0.00 in0.0 mm
06:30 AM 62.9°F17.2°C 52.6°F11.4°C 69% 16.0 mph SE25.7 kmh SE 16.0 mph25.7 kmh 29.62 in1003.0 mb 0.00 in0.0 mm 0.00 in0.0 mm 0.00 in0.0 mm
06:40 AM 63.0°F17.2°C 52.3°F11.3°C 68% 4.0 mph SE6.4 kmh SE 16.0 mph25.7 kmh 29.62 in1003.0 mb 0.00 in0.0 mm 0.00 in0.0 mm 0.00 in0.0 mm
07:00 AM 63.3°F17.4°C 51.8°F11.0°C 66% 7.0 mph SE11.3 kmh SE 11.0 mph17.7 kmh 29.61 in1002.7 mb 0.00 in0.0 mm 0.00 in0.0 mm 0.00 in0.0 mm
07:10 AM 63.6°F17.6°C 52.1°F11.2°C 66% 11.0 mph SE17.7 kmh SE 22.0 mph35.4 kmh 29.60 in1002.4 mb 0.00 in0.0 mm 0.00 in0.0 mm 0.00 in0.0 mm
07:30 AM 63.6°F17.6°C 52.1°F11.2°C 66% 17.0 mph SE27.4 kmh SE 17.0 mph27.4 kmh 29.60 in1002.4 mb 0.00 in0.0 mm 0.00 in0.0 mm 0.00 in0.0 mm
07:40 AM 63.5°F17.5°C 52.0°F11.1°C 66% 13.0 mph SE20.9 kmh SE 21.0 mph33.8 kmh 29.60 in1002.4 mb 0.00 in0.0 mm 0.00 in0.0 mm 0.00 in0.0 mm
08:00 AM 63.6°F17.6°C 52.1°F11.2°C 66% 10.0 mph ESE16.1 kmh ESE 12.0 mph19.3 kmh 29.58 in1001.7 mb 0.00 in0.0 mm 0.00 in0.0 mm 0.00 in0.0 mm
08:09 AM 63.9°F17.7°C 51.9°F11.1°C 65% 15.0 mph SE24.1 kmh SE 22.0 mph35.4 kmh 29.58 in1001.7 mb 0.00 in0.0 mm 0.00 in0.0 mm 0.00 in0.0 mm
08:30 AM 64.2°F17.9°C 51.8°F11.0°C 64% 12.0 mph SE19.3 kmh SE 14.0 mph22.5 kmh 29.58 in1001.7 mb 0.00 in0.0 mm 0.00 in0.0 mm 0.00 in0.0 mm
08:40 AM 64.1°F17.8°C 52.1°F11.2°C 65% 27.0 mph SE43.5 kmh SE 28.0 mph45.1 kmh 29.58 in1001.7 mb 0.00 in0.0 mm 0.00 in0.0 mm 0.00 in0.0 mm
09:00 AM 63.9°F17.7°C 52.3°F11.3°C 66% 19.0 mph SE30.6 kmh SE 25.0 mph40.2 kmh 29.57 in1001.4 mb 0.00 in0.0 mm 0.00 in0.0 mm 0.00 in0.0 mm
09:10 AM 64.2°F17.9°C 52.6°F11.4°C 66% 15.0 mph SSE24.1 kmh SSE 25.0 mph40.2 kmh 29.57 in1001.4 mb 0.00 in0.0 mm 0.00 in0.0 mm 0.00 in0.0 mm
09:30 AM 64.7°F18.2°C 52.7°F11.5°C 65% 10.0 mph SE16.1 kmh SE 10.0 mph16.1 kmh 29.56 in1001.0 mb 0.00 in0.0 mm 0.00 in0.0 mm 0.00 in0.0 mm
09:40 AM 64.7°F18.2°C 52.7°F11.5°C 65% 9.0 mph SSE14.5 kmh SSE 22.0 mph35.4 kmh 29.57 in1001.4 mb 0.00 in0.0 mm 0.00 in0.0 mm 0.00 in0.0 mm
10:00 AM 64.7°F18.2°C 53.1°F11.7°C 66% 18.0 mph SE29.0 kmh SE 18.0 mph29.0 kmh 29.55 in1000.7 mb 0.00 in0.0 mm 0.00 in0.0 mm 0.00 in0.0 mm
10:10 AM 64.7°F18.2°C 53.1°F11.7°C 66% 16.0 mph SE25.7 kmh SE 22.0 mph35.4 kmh 29.55 in1000.7 mb 0.00 in0.0 mm 0.00 in0.0 mm 0.00 in0.0 mm
10:30 AM 64.8°F18.2°C 53.6°F12.0°C 67% 13.0 mph SE20.9 kmh SE 15.0 mph24.1 kmh 29.54 in1000.3 mb 0.00 in0.0 mm 0.00 in0.0 mm 0.00 in0.0 mm
10:40 AM 65.1°F18.4°C 53.5°F11.9°C 66% 11.0 mph SSE17.7 kmh SSE 20.0 mph32.2 kmh 29.53 in1000.0 mb 0.00 in0.0 mm 0.00 in0.0 mm 0.00 in0.0 mm
11:00 AM 65.2°F18.4°C 53.2°F11.8°C 65% 13.0 mph SE20.9 kmh SE 16.0 mph25.7 kmh 29.52 in999.7 mb 0.00 in0.0 mm 0.00 in0.0 mm 0.00 in0.0 mm
11:09 AM 65.4°F18.6°C 53.3°F11.8°C 65% 21.0 mph SE33.8 kmh SE 27.0 mph43.5 kmh 29.52 in999.7 mb 0.00 in0.0 mm 0.00 in0.0 mm 0.00 in0.0 mm
11:30 AM 65.6°F18.7°C 53.1°F11.7°C 64% 13.0 mph SSE20.9 kmh SSE 18.0 mph29.0 kmh 29.51 in999.3 mb 0.00 in0.0 mm 0.00 in0.0 mm 0.00 in0.0 mm
11:39 AM 65.6°F18.7°C 52.7°F11.5°C 63% 21.0 mph SE33.8 kmh SE 27.0 mph43.5 kmh 29.50 in999.0 mb 0.00 in0.0 mm 0.00 in0.0 mm 0.00 in0.0 mm
12:00 PM 65.8°F18.8°C 52.9°F11.6°C 63% 23.0 mph SE37.0 kmh SE 24.0 mph38.6 kmh 29.49 in998.6 mb 0.00 in0.0 mm 0.00 in0.0 mm 0.00 in0.0 mm
12:10 PM 66.1°F18.9°C 52.7°F11.5°C 62% 27.0 mph SE43.5 kmh SE 32.0 mph51.5 kmh 29.50 in999.0 mb 0.00 in0.0 mm 0.00 in0.0 mm 0.00 in0.0 mm
12:30 PM 66.9°F19.4°C 52.6°F11.4°C 60% 17.0 mph SSE27.4 kmh SSE 17.0 mph27.4 kmh 29.49 in998.6 mb 0.00 in0.0 mm 0.00 in0.0 mm 0.00 in0.0 mm
12:40 PM 66.1°F18.9°C 52.7°F11.5°C 62% 18.0 mph SE29.0 kmh SE 29.0 mph46.7 kmh 29.48 in998.3 mb 0.00 in0.0 mm 0.00 in0.0 mm 0.00 in0.0 mm
01:00 PM 65.8°F18.8°C 52.4°F11.3°C 62% 4.0 mph SE6.4 kmh SE 13.0 mph20.9 kmh 29.48 in998.3 mb 0.00 in0.0 mm 0.00 in0.0 mm 0.00 in0.0 mm
01:09 PM 65.3°F18.5°C 52.0°F11.1°C 62% 15.0 mph S24.1 kmh S 22.0 mph35.4 kmh 29.49 in998.6 mb 0.00 in0.0 mm 0.00 in0.0 mm 0.00 in0.0 mm
01:30 PM 65.7°F18.7°C 51.9°F11.1°C 61% 13.0 mph SSE20.9 kmh SSE 15.0 mph24.1 kmh 29.48 in998.3 mb 0.00 in0.0 mm 0.00 in0.0 mm 0.00 in0.0 mm
01:39 PM 65.5°F18.6°C 51.3°F10.7°C 60% 7.0 mph SSE11.3 kmh SSE 23.0 mph37.0 kmh 29.48 in998.3 mb 0.00 in0.0 mm 0.00 in0.0 mm 0.00 in0.0 mm
02:00 PM 65.4°F18.6°C 51.2°F10.7°C 60% 21.0 mph SE33.8 kmh SE 21.0 mph33.8 kmh 29.47 in998.0 mb 0.00 in0.0 mm 0.00 in0.0 mm 0.00 in0.0 mm
02:09 PM 65.5°F18.6°C 50.8°F10.4°C 59% 23.0 mph SE37.0 kmh SE 27.0 mph43.5 kmh 29.46 in997.6 mb 0.00 in0.0 mm 0.00 in0.0 mm 0.00 in0.0 mm
02:30 PM 65.3°F18.5°C 50.6°F10.3°C 59% 15.0 mph SE24.1 kmh SE 15.0 mph24.1 kmh 29.46 in997.6 mb 0.00 in0.0 mm 0.00 in0.0 mm 0.00 in0.0 mm
02:40 PM 65.3°F18.5°C 50.6°F10.3°C 59% 11.0 mph SE17.7 kmh SE 24.0 mph38.6 kmh 29.45 in997.3 mb 0.00 in0.0 mm 0.00 in0.0 mm 0.00 in0.0 mm
03:00 PM 64.9°F18.3°C 50.7°F10.4°C 60% 12.0 mph SE19.3 kmh SE 14.0 mph22.5 kmh 29.45 in997.3 mb 0.00 in0.0 mm 0.00 in0.0 mm 0.00 in0.0 mm
03:09 PM 64.9°F18.3°C 50.7°F10.4°C 60% 14.0 mph SE22.5 kmh SE 18.0 mph29.0 kmh 29.45 in997.3 mb 0.00 in0.0 mm 0.00 in0.0 mm 0.00 in0.0 mm
03:30 PM 64.8°F18.2°C 51.1°F10.6°C 61% 3.0 mph SE4.8 kmh SE 6.0 mph9.7 kmh 29.44 in997.0 mb 0.00 in0.0 mm 0.00 in0.0 mm 0.00 in0.0 mm
03:40 PM 64.6°F18.1°C 51.3°F10.7°C 62% 6.0 mph SSE9.7 kmh SSE 16.0 mph25.7 kmh 29.44 in997.0 mb 0.00 in0.0 mm 0.00 in0.0 mm 0.00 in0.0 mm
04:00 PM 62.8°F17.1°C 52.5°F11.4°C 69% 2.0 mph SSE3.2 kmh SSE 5.0 mph8.0 kmh 29.44 in997.0 mb 0.00 in0.0 mm 0.00 in0.0 mm 0.00 in0.0 mm
04:10 PM 61.8°F16.6°C 53.8°F12.1°C 75% 5.0 mph SSE8.0 kmh SSE 14.0 mph22.5 kmh 29.45 in997.3 mb 0.02 in0.5 mm 0.12 in3.0 mm 0.02 in0.5 mm
04:30 PM 60.5°F15.8°C 53.6°F12.0°C 78% 9.0 mph SE14.5 kmh SE 10.0 mph16.1 kmh 29.43 in996.6 mb 0.02 in0.5 mm 0.00 in0.0 mm 0.02 in0.5 mm
04:40 PM 60.7°F15.9°C 53.8°F12.1°C 78% 7.0 mph SE11.3 kmh SE 11.0 mph17.7 kmh 29.43 in996.6 mb 0.02 in0.5 mm 0.00 in0.0 mm 0.02 in0.5 mm
05:00 PM 60.9°F16.1°C 54.0°F12.2°C 78% 6.0 mph SE9.7 kmh SE 7.0 mph11.3 kmh 29.42 in996.3 mb 0.02 in0.5 mm 0.00 in0.0 mm 0.02 in0.5 mm
05:09 PM 61.1°F16.2°C 53.8°F12.1°C 77% 8.0 mph S12.9 kmh S 17.0 mph27.4 kmh 29.42 in996.3 mb 0.02 in0.5 mm 0.00 in0.0 mm 0.02 in0.5 mm
05:30 PM 61.1°F16.2°C 53.8°F12.1°C 77% 14.0 mph SSE22.5 kmh SSE 14.0 mph22.5 kmh 29.41 in995.9 mb 0.01 in0.3 mm 0.00 in0.0 mm 0.02 in0.5 mm
05:40 PM 61.3°F16.3°C 53.7°F12.1°C 76% 5.0 mph SSE8.0 kmh SSE 18.0 mph29.0 kmh 29.41 in995.9 mb 0.01 in0.3 mm 0.00 in0.0 mm 0.02 in0.5 mm
06:00 PM 61.4°F16.3°C 53.8°F12.1°C 76% 10.0 mph SE16.1 kmh SE 13.0 mph20.9 kmh 29.40 in995.6 mb 0.01 in0.3 mm 0.00 in0.0 mm 0.02 in0.5 mm
06:10 PM 61.6°F16.4°C 54.0°F12.2°C 76% 13.0 mph SE20.9 kmh SE 15.0 mph24.1 kmh 29.40 in995.6 mb 0.01 in0.3 mm 0.00 in0.0 mm 0.02 in0.5 mm
06:30 PM 61.5°F16.4°C 53.2°F11.8°C 74% 7.0 mph SE11.3 kmh SE 10.0 mph16.1 kmh 29.38 in994.9 mb 0.00 in0.0 mm 0.00 in0.0 mm 0.02 in0.5 mm
06:40 PM 61.7°F16.5°C 53.3°F11.8°C 74% 15.0 mph SE24.1 kmh SE 19.0 mph30.6 kmh 29.38 in994.9 mb 0.00 in0.0 mm 0.00 in0.0 mm 0.02 in0.5 mm
07:00 PM 61.7°F16.5°C 53.0°F11.7°C 73% 11.0 mph SE17.7 kmh SE 12.0 mph19.3 kmh 29.38 in994.9 mb 0.00 in0.0 mm 0.00 in0.0 mm 0.02 in0.5 mm
07:09 PM 62.0°F16.7°C 52.5°F11.4°C 71% 7.0 mph SE11.3 kmh SE 14.0 mph22.5 kmh 29.38 in994.9 mb 0.00 in0.0 mm 0.00 in0.0 mm 0.02 in0.5 mm
07:30 PM 62.1°F16.7°C 53.0°F11.7°C 72% 2.0 mph SSE3.2 kmh SSE 6.0 mph9.7 kmh 29.37 in994.6 mb 0.00 in0.0 mm 0.00 in0.0 mm 0.02 in0.5 mm
07:40 PM 62.1°F16.7°C 53.0°F11.7°C 72% 4.0 mph SE6.4 kmh SE 12.0 mph19.3 kmh 29.37 in994.6 mb 0.00 in0.0 mm 0.00 in0.0 mm 0.02 in0.5 mm
08:00 PM 62.0°F16.7°C 52.5°F11.4°C 71% 5.0 mph SE8.0 kmh SE 6.0 mph9.7 kmh 29.36 in994.2 mb 0.00 in0.0 mm 0.00 in0.0 mm 0.02 in0.5 mm
08:10 PM 61.8°F16.6°C 52.3°F11.3°C 71% 13.0 mph SE20.9 kmh SE 13.0 mph20.9 kmh 29.36 in994.2 mb 0.00 in0.0 mm 0.00 in0.0 mm 0.02 in0.5 mm
08:30 PM 62.8°F17.1°C 52.5°F11.4°C 69% 12.0 mph SE19.3 kmh SE 12.0 mph19.3 kmh 29.36 in994.2 mb 0.00 in0.0 mm 0.00 in0.0 mm 0.02 in0.5 mm
08:40 PM 62.7°F17.1°C 52.8°F11.6°C 70% 3.0 mph SE4.8 kmh SE 15.0 mph24.1 kmh 29.36 in994.2 mb 0.00 in0.0 mm 0.00 in0.0 mm 0.02 in0.5 mm
09:00 PM 60.6°F15.9°C 52.3°F11.3°C 74% Calm Calm -- 29.36 in994.2 mb 0.00 in0.0 mm 0.00 in0.0 mm 0.02 in0.5 mm
09:10 PM 59.2°F15.1°C 51.3°F10.7°C 75% Calm Calm 9.0 mph14.5 kmh 29.36 in994.2 mb 0.00 in0.0 mm 0.00 in0.0 mm 0.02 in0.5 mm
09:30 PM 57.8°F14.3°C 51.0°F10.6°C 78% Calm Calm -- 29.36 in994.2 mb 0.00 in0.0 mm 0.00 in0.0 mm 0.02 in0.5 mm
09:40 PM 57.3°F14.1°C 50.9°F10.5°C 79% 4.0 mph WSW6.4 kmh WSW 8.0 mph12.9 kmh 29.37 in994.6 mb 0.00 in0.0 mm 0.00 in0.0 mm 0.02 in0.5 mm
10:00 PM 56.3°F13.5°C 51.2°F10.7°C 83% Calm Calm -- 29.37 in994.6 mb 0.00 in0.0 mm 0.00 in0.0 mm 0.02 in0.5 mm
10:10 PM 55.9°F13.3°C 51.1°F10.6°C 84% Calm Calm -- 29.37 in994.6 mb 0.00 in0.0 mm 0.00 in0.0 mm 0.02 in0.5 mm
10:30 PM 55.3°F12.9°C 51.5°F10.8°C 87% 5.0 mph WSW8.0 kmh WSW 5.0 mph8.0 kmh 29.39 in995.3 mb 0.00 in0.0 mm 0.00 in0.0 mm 0.02 in0.5 mm
10:40 PM 55.1°F12.8°C 51.9°F11.1°C 89% Calm Calm 7.0 mph11.3 kmh 29.39 in995.3 mb 0.06 in1.5 mm 0.36 in9.1 mm 0.08 in2.0 mm
11:00 PM 54.4°F12.4°C 51.8°F11.0°C 91% Calm Calm -- 29.39 in995.3 mb 0.11 in2.8 mm 0.08 in2.0 mm 0.13 in3.3 mm
11:10 PM 54.0°F12.2°C 51.7°F10.9°C 92% Calm Calm -- 29.38 in994.9 mb 0.11 in2.8 mm 0.00 in0.0 mm 0.13 in3.3 mm
11:30 PM 53.8°F12.1°C 51.8°F11.0°C 93% Calm Calm -- 29.38 in994.9 mb 0.12 in3.0 mm 0.03 in0.8 mm 0.14 in3.6 mm
11:40 PM 53.7°F12.1°C 51.7°F10.9°C 93% Calm Calm -- 29.38 in994.9 mb 0.13 in3.3 mm 0.06 in1.5 mm 0.15 in3.8 mm